sensor_id;sensor_type;location;lat;lon;timestamp;temperature;humidity
22379;DHT22;11357;49.990;7.370;2022-10-16T00:01:48;16.90;92.50
22379;DHT22;11357;49.990;7.370;2022-10-16T00:04:14;16.90;92.60
22379;DHT22;11357;49.990;7.370;2022-10-16T00:06:40;16.90;92.60
22379;DHT22;11357;49.990;7.370;2022-10-16T00:09:06;16.80;92.70
22379;DHT22;11357;49.990;7.370;2022-10-16T00:11:34;16.80;92.80
22379;DHT22;11357;49.990;7.370;2022-10-16T00:14:03;16.70;92.80
22379;DHT22;11357;49.990;7.370;2022-10-16T00:16:29;16.70;92.80
22379;DHT22;11357;49.990;7.370;2022-10-16T00:18:56;16.70;92.80
22379;DHT22;11357;49.990;7.370;2022-10-16T00:21:24;16.70;92.80
22379;DHT22;11357;49.990;7.370;2022-10-16T00:23:55;16.70;92.80
22379;DHT22;11357;49.990;7.370;2022-10-16T00:26:22;16.80;92.80
22379;DHT22;11357;49.990;7.370;2022-10-16T00:28:49;16.80;92.80
22379;DHT22;11357;49.990;7.370;2022-10-16T00:31:15;16.80;92.70
22379;DHT22;11357;49.990;7.370;2022-10-16T00:33:42;16.80;92.70
22379;DHT22;11357;49.990;7.370;2022-10-16T00:36:11;16.80;92.80
22379;DHT22;11357;49.990;7.370;2022-10-16T00:38:36;16.80;92.90
22379;DHT22;11357;49.990;7.370;2022-10-16T00:41:04;16.80;92.80
22379;DHT22;11357;49.990;7.370;2022-10-16T00:46:03;16.80;92.80
22379;DHT22;11357;49.990;7.370;2022-10-16T00:48:29;16.80;92.80
22379;DHT22;11357;49.990;7.370;2022-10-16T00:50:55;16.90;92.80
22379;DHT22;11357;49.990;7.370;2022-10-16T00:53:22;16.90;92.80
22379;DHT22;11357;49.990;7.370;2022-10-16T00:55:48;16.90;92.70
22379;DHT22;11357;49.990;7.370;2022-10-16T00:58:14;16.90;92.70
22379;DHT22;11357;49.990;7.370;2022-10-16T01:00:40;16.90;92.70
22379;DHT22;11357;49.990;7.370;2022-10-16T01:03:24;16.90;92.70
22379;DHT22;11357;49.990;7.370;2022-10-16T01:05:57;16.90;92.80
22379;DHT22;11357;49.990;7.370;2022-10-16T01:08:39;16.90;92.70
22379;DHT22;11357;49.990;7.370;2022-10-16T01:11:26;16.90;92.70
22379;DHT22;11357;49.990;7.370;2022-10-16T01:14:00;16.90;92.60
22379;DHT22;11357;49.990;7.370;2022-10-16T01:16:32;16.80;92.60
22379;DHT22;11357;49.990;7.370;2022-10-16T01:19:13;16.80;92.70
22379;DHT22;11357;49.990;7.370;2022-10-16T01:21:43;16.80;92.80
22379;DHT22;11357;49.990;7.370;2022-10-16T01:24:33;16.90;92.80
22379;DHT22;11357;49.990;7.370;2022-10-16T01:27:21;16.80;92.90
22379;DHT22;11357;49.990;7.370;2022-10-16T01:29:54;16.80;92.90
22379;DHT22;11357;49.990;7.370;2022-10-16T01:35:04;16.90;92.90
22379;DHT22;11357;49.990;7.370;2022-10-16T01:37:57;16.90;92.90
22379;DHT22;11357;49.990;7.370;2022-10-16T01:40:26;16.90;92.90
22379;DHT22;11357;49.990;7.370;2022-10-16T01:43:05;17.00;92.90
22379;DHT22;11357;49.990;7.370;2022-10-16T01:45:32;17.00;92.90
22379;DHT22;11357;49.990;7.370;2022-10-16T01:48:00;17.00;92.90
22379;DHT22;11357;49.990;7.370;2022-10-16T01:50:32;17.00;92.90
22379;DHT22;11357;49.990;7.370;2022-10-16T01:53:00;17.00;92.80
22379;DHT22;11357;49.990;7.370;2022-10-16T01:55:35;17.00;92.80
22379;DHT22;11357;49.990;7.370;2022-10-16T01:58:02;17.00;92.90
22379;DHT22;11357;49.990;7.370;2022-10-16T02:00:29;16.90;92.90
22379;DHT22;11357;49.990;7.370;2022-10-16T02:02:58;16.90;92.90
22379;DHT22;11357;49.990;7.370;2022-10-16T02:05:34;16.90;92.90
22379;DHT22;11357;49.990;7.370;2022-10-16T02:08:02;16.90;92.90
22379;DHT22;11357;49.990;7.370;2022-10-16T02:10:28;16.90;92.90
22379;DHT22;11357;49.990;7.370;2022-10-16T02:13:06;17.00;93.00
22379;DHT22;11357;49.990;7.370;2022-10-16T02:15:34;16.90;93.00
22379;DHT22;11357;49.990;7.370;2022-10-16T02:18:02;17.00;93.00
22379;DHT22;11357;49.990;7.370;2022-10-16T02:20:32;17.00;93.00
22379;DHT22;11357;49.990;7.370;2022-10-16T02:23:01;17.00;93.00
22379;DHT22;11357;49.990;7.370;2022-10-16T02:25:37;17.00;93.00
22379;DHT22;11357;49.990;7.370;2022-10-16T02:28:31;16.90;93.10
22379;DHT22;11357;49.990;7.370;2022-10-16T02:31:01;16.90;93.10
22379;DHT22;11357;49.990;7.370;2022-10-16T02:33:29;16.90;93.10
22379;DHT22;11357;49.990;7.370;2022-10-16T02:35:57;17.00;93.10
22379;DHT22;11357;49.990;7.370;2022-10-16T02:38:24;16.90;93.10
22379;DHT22;11357;49.990;7.370;2022-10-16T02:40:50;17.00;93.10
22379;DHT22;11357;49.990;7.370;2022-10-16T02:43:16;16.90;93.00
22379;DHT22;11357;49.990;7.370;2022-10-16T02:45:42;17.00;93.00
22379;DHT22;11357;49.990;7.370;2022-10-16T02:48:08;17.00;93.00
22379;DHT22;11357;49.990;7.370;2022-10-16T02:50:34;17.00;93.00
22379;DHT22;11357;49.990;7.370;2022-10-16T02:52:59;16.90;92.90
22379;DHT22;11357;49.990;7.370;2022-10-16T02:55:25;16.90;93.00
22379;DHT22;11357;49.990;7.370;2022-10-16T02:57:51;16.80;93.10
22379;DHT22;11357;49.990;7.370;2022-10-16T03:00:34;16.80;93.10
22379;DHT22;11357;49.990;7.370;2022-10-16T03:03:11;16.80;93.10
22379;DHT22;11357;49.990;7.370;2022-10-16T03:05:43;16.80;93.10
22379;DHT22;11357;49.990;7.370;2022-10-16T03:08:11;16.80;93.00
22379;DHT22;11357;49.990;7.370;2022-10-16T03:10:37;16.90;93.00
22379;DHT22;11357;49.990;7.370;2022-10-16T03:13:03;16.90;93.00
22379;DHT22;11357;49.990;7.370;2022-10-16T03:15:28;16.90;92.90
22379;DHT22;11357;49.990;7.370;2022-10-16T03:17:54;16.80;92.90
22379;DHT22;11357;49.990;7.370;2022-10-16T03:20:20;16.80;92.90
22379;DHT22;11357;49.990;7.370;2022-10-16T03:22:46;16.80;92.80
22379;DHT22;11357;49.990;7.370;2022-10-16T03:25:11;16.80;92.80
22379;DHT22;11357;49.990;7.370;2022-10-16T03:27:37;16.80;92.70
22379;DHT22;11357;49.990;7.370;2022-10-16T03:30:03;16.80;92.70
22379;DHT22;11357;49.990;7.370;2022-10-16T03:32:29;16.80;92.70
22379;DHT22;11357;49.990;7.370;2022-10-16T03:34:54;16.80;92.70
22379;DHT22;11357;49.990;7.370;2022-10-16T03:37:21;16.70;92.60
22379;DHT22;11357;49.990;7.370;2022-10-16T03:39:47;16.70;92.60
22379;DHT22;11357;49.990;7.370;2022-10-16T03:42:12;16.70;92.60
22379;DHT22;11357;49.990;7.370;2022-10-16T03:44:38;16.70;92.60
22379;DHT22;11357;49.990;7.370;2022-10-16T03:47:04;16.70;92.70
22379;DHT22;11357;49.990;7.370;2022-10-16T03:49:29;16.70;92.70
22379;DHT22;11357;49.990;7.370;2022-10-16T03:51:55;16.70;92.70
22379;DHT22;11357;49.990;7.370;2022-10-16T03:54:21;16.70;92.70
22379;DHT22;11357;49.990;7.370;2022-10-16T03:56:47;16.70;92.70
22379;DHT22;11357;49.990;7.370;2022-10-16T03:59:13;16.70;92.70
22379;DHT22;11357;49.990;7.370;2022-10-16T04:01:39;16.70;92.80
22379;DHT22;11357;49.990;7.370;2022-10-16T04:04:04;16.70;92.80
22379;DHT22;11357;49.990;7.370;2022-10-16T04:06:30;16.80;92.90
22379;DHT22;11357;49.990;7.370;2022-10-16T04:08:56;16.80;93.00
22379;DHT22;11357;49.990;7.370;2022-10-16T04:11:21;16.80;93.00
22379;DHT22;11357;49.990;7.370;2022-10-16T04:13:47;16.80;93.10
22379;DHT22;11357;49.990;7.370;2022-10-16T04:16:13;16.80;93.20
22379;DHT22;11357;49.990;7.370;2022-10-16T04:18:39;16.80;93.20
22379;DHT22;11357;49.990;7.370;2022-10-16T04:21:05;16.80;93.30
22379;DHT22;11357;49.990;7.370;2022-10-16T04:23:32;16.90;93.40
22379;DHT22;11357;49.990;7.370;2022-10-16T04:25:58;16.90;93.40
22379;DHT22;11357;49.990;7.370;2022-10-16T04:28:24;16.90;93.30
22379;DHT22;11357;49.990;7.370;2022-10-16T04:30:50;16.90;93.30
22379;DHT22;11357;49.990;7.370;2022-10-16T04:33:16;17.00;93.40
22379;DHT22;11357;49.990;7.370;2022-10-16T04:35:41;17.00;93.40
22379;DHT22;11357;49.990;7.370;2022-10-16T04:38:07;17.00;93.40
22379;DHT22;11357;49.990;7.370;2022-10-16T04:40:32;17.00;93.40
22379;DHT22;11357;49.990;7.370;2022-10-16T04:43:00;17.00;93.40
22379;DHT22;11357;49.990;7.370;2022-10-16T04:45:26;17.10;93.40
22379;DHT22;11357;49.990;7.370;2022-10-16T04:47:52;17.10;93.40
22379;DHT22;11357;49.990;7.370;2022-10-16T04:50:17;17.10;93.40
22379;DHT22;11357;49.990;7.370;2022-10-16T04:52:43;17.10;93.40
22379;DHT22;11357;49.990;7.370;2022-10-16T04:55:08;17.10;93.40
22379;DHT22;11357;49.990;7.370;2022-10-16T04:57:34;17.10;93.40
22379;DHT22;11357;49.990;7.370;2022-10-16T05:00:00;17.10;93.40
22379;DHT22;11357;49.990;7.370;2022-10-16T05:02:25;17.10;93.40
22379;DHT22;11357;49.990;7.370;2022-10-16T05:04:51;17.10;93.50
22379;DHT22;11357;49.990;7.370;2022-10-16T05:07:17;17.10;93.50
22379;DHT22;11357;49.990;7.370;2022-10-16T05:09:43;17.10;93.50
22379;DHT22;11357;49.990;7.370;2022-10-16T05:12:09;17.20;93.50
22379;DHT22;11357;49.990;7.370;2022-10-16T05:14:34;17.20;93.60
22379;DHT22;11357;49.990;7.370;2022-10-16T05:17:00;17.20;93.60
22379;DHT22;11357;49.990;7.370;2022-10-16T05:19:26;17.20;93.60
22379;DHT22;11357;49.990;7.370;2022-10-16T05:21:51;17.20;93.60
22379;DHT22;11357;49.990;7.370;2022-10-16T05:24:17;17.20;93.70
22379;DHT22;11357;49.990;7.370;2022-10-16T05:26:43;17.20;93.80
22379;DHT22;11357;49.990;7.370;2022-10-16T05:29:09;17.20;94.00
22379;DHT22;11357;49.990;7.370;2022-10-16T05:31:34;17.20;94.00
22379;DHT22;11357;49.990;7.370;2022-10-16T05:34:01;17.20;94.10
22379;DHT22;11357;49.990;7.370;2022-10-16T05:36:26;17.20;94.10
22379;DHT22;11357;49.990;7.370;2022-10-16T05:38:52;17.20;94.10
22379;DHT22;11357;49.990;7.370;2022-10-16T05:41:18;17.20;94.10
22379;DHT22;11357;49.990;7.370;2022-10-16T05:43:49;17.30;94.10
22379;DHT22;11357;49.990;7.370;2022-10-16T05:46:15;17.20;94.10
22379;DHT22;11357;49.990;7.370;2022-10-16T05:48:41;17.30;94.20
22379;DHT22;11357;49.990;7.370;2022-10-16T05:51:10;17.30;94.30
22379;DHT22;11357;49.990;7.370;2022-10-16T05:53:37;17.30;94.30
22379;DHT22;11357;49.990;7.370;2022-10-16T05:56:04;17.30;94.30
22379;DHT22;11357;49.990;7.370;2022-10-16T05:58:35;17.30;94.30
22379;DHT22;11357;49.990;7.370;2022-10-16T06:01:02;17.30;94.40
22379;DHT22;11357;49.990;7.370;2022-10-16T06:03:28;17.40;94.40
22379;DHT22;11357;49.990;7.370;2022-10-16T06:05:54;17.30;94.30
22379;DHT22;11357;49.990;7.370;2022-10-16T06:08:21;17.40;94.30
22379;DHT22;11357;49.990;7.370;2022-10-16T06:10:47;17.40;94.30
22379;DHT22;11357;49.990;7.370;2022-10-16T06:13:14;17.40;94.30
22379;DHT22;11357;49.990;7.370;2022-10-16T06:15:41;17.40;94.40
22379;DHT22;11357;49.990;7.370;2022-10-16T06:18:08;17.40;94.40
22379;DHT22;11357;49.990;7.370;2022-10-16T06:20:34;17.50;94.40
22379;DHT22;11357;49.990;7.370;2022-10-16T06:23:00;17.50;94.40
22379;DHT22;11357;49.990;7.370;2022-10-16T06:25:26;17.50;94.40
22379;DHT22;11357;49.990;7.370;2022-10-16T06:27:51;17.50;94.40
22379;DHT22;11357;49.990;7.370;2022-10-16T06:30:17;17.50;94.40
22379;DHT22;11357;49.990;7.370;2022-10-16T06:32:43;17.50;94.40
22379;DHT22;11357;49.990;7.370;2022-10-16T06:35:08;17.60;94.40
22379;DHT22;11357;49.990;7.370;2022-10-16T06:37:34;17.60;94.40
22379;DHT22;11357;49.990;7.370;2022-10-16T06:39:59;17.60;94.40
22379;DHT22;11357;49.990;7.370;2022-10-16T06:42:25;17.70;94.40
22379;DHT22;11357;49.990;7.370;2022-10-16T06:44:51;17.70;94.30
22379;DHT22;11357;49.990;7.370;2022-10-16T06:47:17;17.70;94.20
22379;DHT22;11357;49.990;7.370;2022-10-16T06:49:43;17.70;94.20
22379;DHT22;11357;49.990;7.370;2022-10-16T06:52:08;17.70;94.20
22379;DHT22;11357;49.990;7.370;2022-10-16T06:54:34;17.70;94.20
22379;DHT22;11357;49.990;7.370;2022-10-16T06:57:00;17.70;94.20
22379;DHT22;11357;49.990;7.370;2022-10-16T06:59:27;17.70;94.20
22379;DHT22;11357;49.990;7.370;2022-10-16T07:01:52;17.80;94.20
22379;DHT22;11357;49.990;7.370;2022-10-16T07:04:18;17.80;94.20
22379;DHT22;11357;49.990;7.370;2022-10-16T07:06:44;17.80;94.20
22379;DHT22;11357;49.990;7.370;2022-10-16T07:09:10;17.80;94.10
22379;DHT22;11357;49.990;7.370;2022-10-16T07:11:38;17.90;94.10
22379;DHT22;11357;49.990;7.370;2022-10-16T07:14:04;17.90;94.10
22379;DHT22;11357;49.990;7.370;2022-10-16T07:16:32;17.90;94.00
22379;DHT22;11357;49.990;7.370;2022-10-16T07:19:00;17.90;94.00
22379;DHT22;11357;49.990;7.370;2022-10-16T07:21:31;17.90;94.00
22379;DHT22;11357;49.990;7.370;2022-10-16T07:24:00;17.90;94.00
22379;DHT22;11357;49.990;7.370;2022-10-16T07:26:28;17.90;94.10
22379;DHT22;11357;49.990;7.370;2022-10-16T07:28:55;17.90;94.10
22379;DHT22;11357;49.990;7.370;2022-10-16T07:31:22;18.00;94.10
22379;DHT22;11357;49.990;7.370;2022-10-16T07:33:49;18.00;94.10
22379;DHT22;11357;49.990;7.370;2022-10-16T07:36:17;18.00;94.10
22379;DHT22;11357;49.990;7.370;2022-10-16T07:38:43;18.00;94.10
22379;DHT22;11357;49.990;7.370;2022-10-16T07:41:11;18.10;94.10
22379;DHT22;11357;49.990;7.370;2022-10-16T07:43:37;18.10;94.10
22379;DHT22;11357;49.990;7.370;2022-10-16T07:46:03;18.10;94.00
22379;DHT22;11357;49.990;7.370;2022-10-16T07:48:31;18.20;94.00
22379;DHT22;11357;49.990;7.370;2022-10-16T07:50:58;18.20;93.90
22379;DHT22;11357;49.990;7.370;2022-10-16T07:53:24;18.20;93.90
22379;DHT22;11357;49.990;7.370;2022-10-16T07:55:50;18.20;93.90
22379;DHT22;11357;49.990;7.370;2022-10-16T07:58:16;18.20;93.90
22379;DHT22;11357;49.990;7.370;2022-10-16T08:00:41;18.30;93.90
22379;DHT22;11357;49.990;7.370;2022-10-16T08:03:08;18.30;93.90
22379;DHT22;11357;49.990;7.370;2022-10-16T08:05:34;18.30;93.80
22379;DHT22;11357;49.990;7.370;2022-10-16T08:08:01;18.30;93.70
22379;DHT22;11357;49.990;7.370;2022-10-16T08:10:28;18.30;93.80
22379;DHT22;11357;49.990;7.370;2022-10-16T08:12:54;18.40;93.80
22379;DHT22;11357;49.990;7.370;2022-10-16T08:15:20;18.50;93.90
22379;DHT22;11357;49.990;7.370;2022-10-16T08:18:00;18.70;93.80
22379;DHT22;11357;49.990;7.370;2022-10-16T08:20:27;18.80;93.80
22379;DHT22;11357;49.990;7.370;2022-10-16T08:22:53;19.00;93.60
22379;DHT22;11357;49.990;7.370;2022-10-16T08:25:20;19.30;93.60
22379;DHT22;11357;49.990;7.370;2022-10-16T08:27:46;19.90;93.30
22379;DHT22;11357;49.990;7.370;2022-10-16T08:30:13;20.30;92.80
22379;DHT22;11357;49.990;7.370;2022-10-16T08:32:38;20.60;92.20
22379;DHT22;11357;49.990;7.370;2022-10-16T08:35:04;20.90;92.10
22379;DHT22;11357;49.990;7.370;2022-10-16T08:37:33;21.10;91.50
22379;DHT22;11357;49.990;7.370;2022-10-16T08:39:59;21.20;91.30
22379;DHT22;11357;49.990;7.370;2022-10-16T08:47:55;20.90;90.90
22379;DHT22;11357;49.990;7.370;2022-10-16T08:50:28;20.80;91.00
22379;DHT22;11357;49.990;7.370;2022-10-16T08:52:55;20.70;91.00
22379;DHT22;11357;49.990;7.370;2022-10-16T08:55:31;20.60;91.00
22379;DHT22;11357;49.990;7.370;2022-10-16T08:58:00;20.40;91.00
22379;DHT22;11357;49.990;7.370;2022-10-16T09:00:26;20.40;91.00
22379;DHT22;11357;49.990;7.370;2022-10-16T09:03:17;20.30;91.40
22379;DHT22;11357;49.990;7.370;2022-10-16T09:19:49;20.00;91.20
22379;DHT22;11357;49.990;7.370;2022-10-16T09:22:17;20.10;91.20
22379;DHT22;11357;49.990;7.370;2022-10-16T09:24:43;20.20;91.20
22379;DHT22;11357;49.990;7.370;2022-10-16T09:27:14;20.30;91.10
22379;DHT22;11357;49.990;7.370;2022-10-16T09:29:40;20.30;91.10
22379;DHT22;11357;49.990;7.370;2022-10-16T09:32:16;20.50;91.00
22379;DHT22;11357;49.990;7.370;2022-10-16T09:34:47;20.90;90.80
22379;DHT22;11357;49.990;7.370;2022-10-16T09:37:16;21.20;90.40
22379;DHT22;11357;49.990;7.370;2022-10-16T09:39:47;21.40;90.10
22379;DHT22;11357;49.990;7.370;2022-10-16T09:42:22;21.40;89.90
22379;DHT22;11357;49.990;7.370;2022-10-16T09:44:51;21.40;89.40
22379;DHT22;11357;49.990;7.370;2022-10-16T09:47:23;21.30;89.60
22379;DHT22;11357;49.990;7.370;2022-10-16T09:49:52;21.30;89.70
22379;DHT22;11357;49.990;7.370;2022-10-16T09:52:18;21.40;89.60
22379;DHT22;11357;49.990;7.370;2022-10-16T09:57:16;21.70;89.00
22379;DHT22;11357;49.990;7.370;2022-10-16T09:59:53;21.90;88.60
22379;DHT22;11357;49.990;7.370;2022-10-16T10:02:30;22.10;88.50
22379;DHT22;11357;49.990;7.370;2022-10-16T10:04:56;22.20;87.60
22379;DHT22;11357;49.990;7.370;2022-10-16T10:07:35;22.30;87.10
22379;DHT22;11357;49.990;7.370;2022-10-16T10:10:04;22.20;87.00
22379;DHT22;11357;49.990;7.370;2022-10-16T10:12:32;22.30;86.90
22379;DHT22;11357;49.990;7.370;2022-10-16T10:15:04;22.40;86.60
22379;DHT22;11357;49.990;7.370;2022-10-16T10:17:31;22.50;86.70
22379;DHT22;11357;49.990;7.370;2022-10-16T10:19:59;22.70;86.20
22379;DHT22;11357;49.990;7.370;2022-10-16T10:22:42;22.80;85.90
22379;DHT22;11357;49.990;7.370;2022-10-16T10:33:37;23.20;84.20
22379;DHT22;11357;49.990;7.370;2022-10-16T10:38:54;23.30;83.50
22379;DHT22;11357;49.990;7.370;2022-10-16T10:47:51;23.50;82.30
22379;DHT22;11357;49.990;7.370;2022-10-16T10:53:24;23.60;81.60
22379;DHT22;11357;49.990;7.370;2022-10-16T11:04:37;24.00;80.50
22379;DHT22;11357;49.990;7.370;2022-10-16T11:07:34;24.20;80.40
22379;DHT22;11357;49.990;7.370;2022-10-16T11:10:09;24.50;79.50
22379;DHT22;11357;49.990;7.370;2022-10-16T11:12:44;24.90;78.60
22379;DHT22;11357;49.990;7.370;2022-10-16T11:17:41;25.70;76.40
22379;DHT22;11357;49.990;7.370;2022-10-16T11:20:21;25.70;75.40
22379;DHT22;11357;49.990;7.370;2022-10-16T11:23:42;25.60;75.20
22379;DHT22;11357;49.990;7.370;2022-10-16T11:25:43;25.50;74.90
22379;DHT22;11357;49.990;7.370;2022-10-16T11:28:51;25.30;75.20
22379;DHT22;11357;49.990;7.370;2022-10-16T11:31:16;25.40;75.30
22379;DHT22;11357;49.990;7.370;2022-10-16T11:33:47;25.50;75.00
22379;DHT22;11357;49.990;7.370;2022-10-16T11:39:28;25.30;74.70
22379;DHT22;11357;49.990;7.370;2022-10-16T11:42:10;25.20;74.80
22379;DHT22;11357;49.990;7.370;2022-10-16T11:44:48;25.10;74.60
22379;DHT22;11357;49.990;7.370;2022-10-16T11:47:40;25.00;74.90
22379;DHT22;11357;49.990;7.370;2022-10-16T11:50:28;25.00;74.90
22379;DHT22;11357;49.990;7.370;2022-10-16T11:55:42;25.40;74.70
22379;DHT22;11357;49.990;7.370;2022-10-16T11:58:16;25.70;74.30
22379;DHT22;11357;49.990;7.370;2022-10-16T12:03:30;25.50;73.30
22379;DHT22;11357;49.990;7.370;2022-10-16T12:06:10;25.30;73.60
22379;DHT22;11357;49.990;7.370;2022-10-16T12:08:37;25.10;74.20
22379;DHT22;11357;49.990;7.370;2022-10-16T12:16:50;25.10;75.40
22379;DHT22;11357;49.990;7.370;2022-10-16T12:19:20;25.30;74.70
22379;DHT22;11357;49.990;7.370;2022-10-16T12:21:46;25.40;74.80
22379;DHT22;11357;49.990;7.370;2022-10-16T12:26:57;25.50;74.20
22379;DHT22;11357;49.990;7.370;2022-10-16T12:29:39;25.30;74.40
22379;DHT22;11357;49.990;7.370;2022-10-16T12:32:36;25.10;74.70
22379;DHT22;11357;49.990;7.370;2022-10-16T12:35:04;25.00;75.20
22379;DHT22;11357;49.990;7.370;2022-10-16T12:37:35;25.00;75.40
22379;DHT22;11357;49.990;7.370;2022-10-16T12:42:47;25.00;75.50
22379;DHT22;11357;49.990;7.370;2022-10-16T12:45:45;25.00;75.20
22379;DHT22;11357;49.990;7.370;2022-10-16T12:48:21;24.90;75.50
22379;DHT22;11357;49.990;7.370;2022-10-16T12:50:47;24.90;75.10
22379;DHT22;11357;49.990;7.370;2022-10-16T12:53:31;25.00;75.00
22379;DHT22;11357;49.990;7.370;2022-10-16T12:56:18;25.00;75.00
22379;DHT22;11357;49.990;7.370;2022-10-16T13:06:43;25.00;75.00
22379;DHT22;11357;49.990;7.370;2022-10-16T13:14:58;24.90;76.30
22379;DHT22;11357;49.990;7.370;2022-10-16T13:20:22;24.80;75.90
22379;DHT22;11357;49.990;7.370;2022-10-16T13:22:55;24.70;76.20
22379;DHT22;11357;49.990;7.370;2022-10-16T13:28:11;24.70;76.20
22379;DHT22;11357;49.990;7.370;2022-10-16T13:30:58;24.80;76.10
22379;DHT22;11357;49.990;7.370;2022-10-16T13:33:38;24.80;76.00
22379;DHT22;11357;49.990;7.370;2022-10-16T13:36:05;24.70;75.80
22379;DHT22;11357;49.990;7.370;2022-10-16T13:38:33;24.60;76.00
22379;DHT22;11357;49.990;7.370;2022-10-16T13:41:01;24.50;76.10
22379;DHT22;11357;49.990;7.370;2022-10-16T13:43:40;24.40;76.00
22379;DHT22;11357;49.990;7.370;2022-10-16T13:46:13;24.30;76.60
22379;DHT22;11357;49.990;7.370;2022-10-16T13:48:39;24.30;76.80
22379;DHT22;11357;49.990;7.370;2022-10-16T13:51:18;24.40;76.80
22379;DHT22;11357;49.990;7.370;2022-10-16T13:53:44;24.40;76.90
22379;DHT22;11357;49.990;7.370;2022-10-16T13:56:15;24.50;76.80
22379;DHT22;11357;49.990;7.370;2022-10-16T13:58:42;24.50;76.60
22379;DHT22;11357;49.990;7.370;2022-10-16T14:01:20;24.50;76.60
22379;DHT22;11357;49.990;7.370;2022-10-16T14:03:49;24.70;76.70
22379;DHT22;11357;49.990;7.370;2022-10-16T14:06:18;24.80;76.30
22379;DHT22;11357;49.990;7.370;2022-10-16T14:08:53;25.00;76.20
22379;DHT22;11357;49.990;7.370;2022-10-16T14:11:22;25.10;75.90
22379;DHT22;11357;49.990;7.370;2022-10-16T14:13:49;25.10;75.10
22379;DHT22;11357;49.990;7.370;2022-10-16T14:16:19;25.10;75.00
22379;DHT22;11357;49.990;7.370;2022-10-16T14:19:19;25.00;74.90
22379;DHT22;11357;49.990;7.370;2022-10-16T14:21:46;25.00;75.20
22379;DHT22;11357;49.990;7.370;2022-10-16T14:24:32;24.90;75.20
22379;DHT22;11357;49.990;7.370;2022-10-16T14:27:00;24.90;75.40
22379;DHT22;11357;49.990;7.370;2022-10-16T14:29:28;24.90;75.30
22379;DHT22;11357;49.990;7.370;2022-10-16T14:32:01;24.80;75.50
22379;DHT22;11357;49.990;7.370;2022-10-16T14:34:30;24.80;75.60
22379;DHT22;11357;49.990;7.370;2022-10-16T14:37:41;24.70;75.40
22379;DHT22;11357;49.990;7.370;2022-10-16T14:39:51;24.70;75.90
22379;DHT22;11357;49.990;7.370;2022-10-16T14:42:19;24.60;76.00
22379;DHT22;11357;49.990;7.370;2022-10-16T14:44:46;24.50;76.10
22379;DHT22;11357;49.990;7.370;2022-10-16T14:47:17;24.40;76.40
22379;DHT22;11357;49.990;7.370;2022-10-16T14:49:49;24.20;76.80
22379;DHT22;11357;49.990;7.370;2022-10-16T14:52:15;24.00;77.30
22379;DHT22;11357;49.990;7.370;2022-10-16T14:54:41;23.90;77.80
22379;DHT22;11357;49.990;7.370;2022-10-16T14:57:19;23.80;78.40
22379;DHT22;11357;49.990;7.370;2022-10-16T14:59:46;23.70;78.60
22379;DHT22;11357;49.990;7.370;2022-10-16T15:02:29;23.60;78.70
22379;DHT22;11357;49.990;7.370;2022-10-16T15:04:56;23.50;79.20
22379;DHT22;11357;49.990;7.370;2022-10-16T15:07:22;23.50;79.40
22379;DHT22;11357;49.990;7.370;2022-10-16T15:09:47;23.40;79.60
22379;DHT22;11357;49.990;7.370;2022-10-16T15:12:13;23.40;79.70
22379;DHT22;11357;49.990;7.370;2022-10-16T15:14:39;23.30;79.80
22379;DHT22;11357;49.990;7.370;2022-10-16T15:17:04;23.20;80.00
22379;DHT22;11357;49.990;7.370;2022-10-16T15:19:30;23.10;80.20
22379;DHT22;11357;49.990;7.370;2022-10-16T15:21:56;23.10;80.40
22379;DHT22;11357;49.990;7.370;2022-10-16T15:24:22;23.00;80.70
22379;DHT22;11357;49.990;7.370;2022-10-16T15:26:48;22.90;81.00
22379;DHT22;11357;49.990;7.370;2022-10-16T15:29:15;22.90;81.30
22379;DHT22;11357;49.990;7.370;2022-10-16T15:31:41;22.90;81.50
22379;DHT22;11357;49.990;7.370;2022-10-16T15:34:12;22.80;81.70
22379;DHT22;11357;49.990;7.370;2022-10-16T15:36:39;22.80;81.90
22379;DHT22;11357;49.990;7.370;2022-10-16T15:39:19;22.70;82.10
22379;DHT22;11357;49.990;7.370;2022-10-16T15:41:46;22.60;82.50
22379;DHT22;11357;49.990;7.370;2022-10-16T15:44:16;22.50;82.60
22379;DHT22;11357;49.990;7.370;2022-10-16T15:46:42;22.50;83.00
22379;DHT22;11357;49.990;7.370;2022-10-16T15:49:08;22.40;83.20
22379;DHT22;11357;49.990;7.370;2022-10-16T15:51:38;22.40;83.60
22379;DHT22;11357;49.990;7.370;2022-10-16T15:54:04;22.20;83.80
22379;DHT22;11357;49.990;7.370;2022-10-16T15:56:30;22.20;84.20
22379;DHT22;11357;49.990;7.370;2022-10-16T15:58:59;22.10;84.50
22379;DHT22;11357;49.990;7.370;2022-10-16T16:01:25;22.00;84.80
22379;DHT22;11357;49.990;7.370;2022-10-16T16:03:54;21.90;85.10
22379;DHT22;11357;49.990;7.370;2022-10-16T16:06:20;21.80;85.60
22379;DHT22;11357;49.990;7.370;2022-10-16T16:08:46;21.70;85.80
22379;DHT22;11357;49.990;7.370;2022-10-16T16:11:15;21.70;86.20
22379;DHT22;11357;49.990;7.370;2022-10-16T16:13:41;21.60;86.40
22379;DHT22;11357;49.990;7.370;2022-10-16T16:16:09;21.60;86.70
22379;DHT22;11357;49.990;7.370;2022-10-16T16:18:35;21.60;86.90
22379;DHT22;11357;49.990;7.370;2022-10-16T16:21:01;21.60;87.10
22379;DHT22;11357;49.990;7.370;2022-10-16T16:23:27;21.50;87.30
22379;DHT22;11357;49.990;7.370;2022-10-16T16:26:03;21.50;87.50
22379;DHT22;11357;49.990;7.370;2022-10-16T16:28:29;21.40;87.90
22379;DHT22;11357;49.990;7.370;2022-10-16T16:30:55;21.40;88.00
22379;DHT22;11357;49.990;7.370;2022-10-16T16:33:21;21.30;88.20
22379;DHT22;11357;49.990;7.370;2022-10-16T16:35:47;21.30;88.50
22379;DHT22;11357;49.990;7.370;2022-10-16T16:38:12;21.30;88.70
22379;DHT22;11357;49.990;7.370;2022-10-16T16:40:38;21.20;88.90
22379;DHT22;11357;49.990;7.370;2022-10-16T16:43:04;21.20;89.10
22379;DHT22;11357;49.990;7.370;2022-10-16T16:45:29;21.10;89.30
22379;DHT22;11357;49.990;7.370;2022-10-16T16:47:55;21.10;89.60
22379;DHT22;11357;49.990;7.370;2022-10-16T16:50:21;21.00;89.80
22379;DHT22;11357;49.990;7.370;2022-10-16T16:52:46;21.00;90.00
22379;DHT22;11357;49.990;7.370;2022-10-16T16:55:12;21.00;90.00
22379;DHT22;11357;49.990;7.370;2022-10-16T16:57:38;21.00;90.00
22379;DHT22;11357;49.990;7.370;2022-10-16T17:00:04;21.00;90.10
22379;DHT22;11357;49.990;7.370;2022-10-16T17:02:30;20.90;90.10
22379;DHT22;11357;49.990;7.370;2022-10-16T17:04:55;21.00;90.20
22379;DHT22;11357;49.990;7.370;2022-10-16T17:07:22;20.90;90.20
22379;DHT22;11357;49.990;7.370;2022-10-16T17:09:51;20.90;90.20
22379;DHT22;11357;49.990;7.370;2022-10-16T17:12:17;20.80;90.30
22379;DHT22;11357;49.990;7.370;2022-10-16T17:14:43;20.80;90.40
22379;DHT22;11357;49.990;7.370;2022-10-16T17:17:08;20.70;90.50
22379;DHT22;11357;49.990;7.370;2022-10-16T17:19:34;20.70;90.60
22379;DHT22;11357;49.990;7.370;2022-10-16T17:22:00;20.70;90.70